Pagina principale
METAR-TAF:

METAR-TAF

Aeroporti :

Épinal, Francia

latitudine: 48-19-31N, longitudine: 6-04-00E, altezza: 330 m

Osservazione

Il bollettino è stato emesso 44 minuti fa, alle 18:30 UTC
Vento 6 kt da sud/sud-ovest
Temperature 7°C
Umidità 87%
Pressione 1007 hPa
Visibilità 10 km o più
Nuvoloso ad un'altezza di 4500 ft
Nuvoloso ad un'altezza di 6000 ft
Cielo coperto ad un'altezza di 7600 ft

METAR: LFSG 211830Z AUTO 20006KT 9999 BKN045 BKN060 OVC076 07/05 Q1007

Ora: 20:14 (19:14 UTC)


TAF: mancante

Osservazioni e previsioni meteorologiche di più di 4000 aeroporti (messaggi METAR e TAF).

Le stazioni disponibili sono rappresentate dai dischi gialli e rossi sulla carta.

Puntare il mouse per vedere il nome della stazione.

Clicca sopra per visualizzare le osservazioni e previsioni meteorologiche.

Per cambiare la mappa : fare clic sui pulsanti verdi con una croce nera per ingrandire, il pulsante verde con un trattino per diminuire, o sulla freccia verde per le mappe adiacenti.


METAR-TAF: